DAL1426 KLAX-KJFK
Flight info
| Callsign | DAL1426 |
|---|---|
| Flight time | N/A |
| Altitude | 33000 |
| Route | OSHNN1 BEALE J146 DICEE/N0462F350 J146 DVC KD51W OATHE KD54A MCI RBS BVT/N0458F370 JOEBU DORET Q29 JHW Q476 WLKES PUCKY1 |
| Aircraft | B739/M-SDE2E3FGHIRWXY/LB1 |
Departure
| Time | N/A |
|---|---|
| Airport | Los Angeles International Airport (KLAX) |
Arrival
| Time | 2026-05-07 04:41 |
|---|---|
| Airport | John F. Kennedy International Airport (KJFK) |
| Time | Latitude | Longitude | Altitude | Speed | Heading |
|---|---|---|---|---|---|
| 2026-05-07 04:19 | 41.16883 | -75.19499 | 24901 ft | 488 kts | 90° |
| 2026-05-07 04:19 | 41.16546 | -75.15175 | 24891 ft | 456 kts | 116° |
| 2026-05-07 04:19 | 41.15233 | -75.11597 | 24903 ft | 408 kts | 142° |
| 2026-05-07 04:19 | 41.13303 | -75.09217 | 24832 ft | 355 kts | 166° |
| 2026-05-07 04:20 | 41.11213 | -75.07725 | 24635 ft | 332 kts | 174° |
| 2026-05-07 04:20 | 41.09125 | -75.06426 | 24293 ft | 335 kts | 171° |
| 2026-05-07 04:20 | 41.07123 | -75.04719 | 23833 ft | 359 kts | 156° |
| 2026-05-07 04:21 | 41.03807 | -74.99254 | 22617 ft | 405 kts | 130° |
| 2026-05-07 04:21 | 41.02493 | -74.95809 | 21376 ft | 432 kts | 123° |
| 2026-05-07 04:21 | 41.01252 | -74.92068 | 20308 ft | 450 kts | 121° |
| 2026-05-07 04:21 | 41.00051 | -74.88237 | 19760 ft | 450 kts | 116° |
| 2026-05-07 04:22 | 40.99185 | -74.84262 | 19395 ft | 450 kts | 106° |
| 2026-05-07 04:22 | 40.98694 | -74.80190 | 19022 ft | 445 kts | 103° |
| 2026-05-07 04:22 | 40.98257 | -74.76153 | 18598 ft | 440 kts | 103° |
| 2026-05-07 04:22 | 40.97826 | -74.72168 | 18186 ft | 435 kts | 103° |
| 2026-05-07 04:23 | 40.97390 | -74.68229 | 17682 ft | 431 kts | 103° |
| 2026-05-07 04:23 | 40.96944 | -74.64315 | 17154 ft | 428 kts | 104° |
| 2026-05-07 04:23 | 40.96493 | -74.60440 | 16639 ft | 425 kts | 104° |
| 2026-05-07 04:23 | 40.96039 | -74.56588 | 16142 ft | 422 kts | 104° |
| 2026-05-07 04:24 | 40.95586 | -74.52769 | 15649 ft | 419 kts | 104° |
| 2026-05-07 04:24 | 40.95133 | -74.48975 | 15145 ft | 416 kts | 104° |
| 2026-05-07 04:24 | 40.94681 | -74.45196 | 14673 ft | 414 kts | 104° |
| 2026-05-07 04:24 | 40.94232 | -74.41449 | 14206 ft | 412 kts | 104° |
| 2026-05-07 04:25 | 40.93784 | -74.37718 | 13763 ft | 409 kts | 104° |
| 2026-05-07 04:25 | 40.93338 | -74.34012 | 13282 ft | 406 kts | 104° |
| 2026-05-07 04:25 | 40.92898 | -74.30359 | 12875 ft | 400 kts | 104° |
| 2026-05-07 04:25 | 40.92461 | -74.26748 | 12387 ft | 397 kts | 104° |
| 2026-05-07 04:26 | 40.92025 | -74.23154 | 11884 ft | 395 kts | 104° |
| 2026-05-07 04:26 | 40.91594 | -74.19610 | 11418 ft | 393 kts | 104° |
| 2026-05-07 04:26 | 40.91162 | -74.16069 | 11093 ft | 386 kts | 104° |
| 2026-05-07 04:26 | 40.90692 | -74.12650 | 10981 ft | 369 kts | 112° |
| 2026-05-07 04:27 | 40.89630 | -74.09730 | 10890 ft | 341 kts | 131° |
| 2026-05-07 04:27 | 40.88354 | -74.07163 | 10801 ft | 328 kts | 132° |
| 2026-05-07 04:27 | 40.87117 | -74.04681 | 10685 ft | 317 kts | 133° |
| 2026-05-07 04:27 | 40.85926 | -74.02281 | 10521 ft | 310 kts | 132° |
| 2026-05-07 04:28 | 40.84880 | -73.99754 | 10189 ft | 314 kts | 125° |
| 2026-05-07 04:28 | 40.83941 | -73.97148 | 9897 ft | 315 kts | 123° |
| 2026-05-07 04:28 | 40.83061 | -73.94566 | 9570 ft | 315 kts | 122° |
| 2026-05-07 04:28 | 40.82166 | -73.91941 | 9265 ft | 312 kts | 122° |
| 2026-05-07 04:29 | 40.81280 | -73.89328 | 8941 ft | 310 kts | 122° |
| 2026-05-07 04:29 | 40.80399 | -73.86737 | 8619 ft | 309 kts | 122° |
| 2026-05-07 04:29 | 40.79511 | -73.84160 | 8270 ft | 307 kts | 123° |
| 2026-05-07 04:29 | 40.78567 | -73.81646 | 7961 ft | 304 kts | 125° |
| 2026-05-07 04:30 | 40.77609 | -73.79170 | 7659 ft | 302 kts | 125° |
| 2026-05-07 04:30 | 40.76652 | -73.76711 | 7368 ft | 301 kts | 125° |
| 2026-05-07 04:30 | 40.75692 | -73.74259 | 7050 ft | 301 kts | 125° |
| 2026-05-07 04:30 | 40.74742 | -73.71840 | 6958 ft | 293 kts | 125° |
| 2026-05-07 04:31 | 40.73822 | -73.69482 | 6808 ft | 286 kts | 125° |
| 2026-05-07 04:31 | 40.72921 | -73.67166 | 6654 ft | 280 kts | 125° |
| 2026-05-07 04:31 | 40.72044 | -73.64906 | 6458 ft | 275 kts | 125° |
| 2026-05-07 04:31 | 40.71248 | -73.62618 | 6229 ft | 274 kts | 124° |
| 2026-05-07 04:32 | 40.70215 | -73.60593 | 5851 ft | 268 kts | 136° |
| 2026-05-07 04:32 | 40.69029 | -73.58695 | 5453 ft | 270 kts | 137° |
| 2026-05-07 04:32 | 40.67802 | -73.56811 | 5064 ft | 272 kts | 138° |
| 2026-05-07 04:32 | 40.66553 | -73.54917 | 4707 ft | 274 kts | 138° |
| 2026-05-07 04:33 | 40.65703 | -73.53650 | 4492 ft | 273 kts | 137° |
| 2026-05-07 04:33 | 40.64033 | -73.51219 | 4209 ft | 269 kts | 138° |
| 2026-05-07 04:33 | 40.63175 | -73.49989 | 4040 ft | 269 kts | 138° |
| 2026-05-07 04:33 | 40.61917 | -73.48207 | 3795 ft | 269 kts | 138° |
| 2026-05-07 04:34 | 40.60638 | -73.46413 | 3559 ft | 265 kts | 138° |
| 2026-05-07 04:34 | 40.59424 | -73.44717 | 3452 ft | 244 kts | 138° |
| 2026-05-07 04:34 | 40.58278 | -73.43182 | 3286 ft | 224 kts | 148° |
| 2026-05-07 04:34 | 40.56928 | -73.42599 | 3081 ft | 200 kts | 195° |
| 2026-05-07 04:35 | 40.55824 | -73.43445 | 3055 ft | 180 kts | 242° |
| 2026-05-07 04:35 | 40.55654 | -73.44976 | 2995 ft | 174 kts | 289° |
| 2026-05-07 04:35 | 40.56342 | -73.46297 | 3004 ft | 178 kts | 300° |
| 2026-05-07 04:35 | 40.56854 | -73.47747 | 2995 ft | 174 kts | 281° |
| 2026-05-07 04:36 | 40.56884 | -73.49320 | 2991 ft | 173 kts | 261° |
| 2026-05-07 04:36 | 40.56620 | -73.50864 | 3000 ft | 174 kts | 256° |
| 2026-05-07 04:36 | 40.56360 | -73.52420 | 2998 ft | 175 kts | 263° |
| 2026-05-07 04:36 | 40.56360 | -73.54024 | 2998 ft | 175 kts | 272° |
| 2026-05-07 04:37 | 40.56412 | -73.55605 | 2993 ft | 175 kts | 272° |
| 2026-05-07 04:37 | 40.56459 | -73.57201 | 2996 ft | 174 kts | 271° |
| 2026-05-07 04:37 | 40.56622 | -73.58773 | 2957 ft | 176 kts | 290° |
| 2026-05-07 04:37 | 40.57246 | -73.60194 | 2754 ft | 181 kts | 297° |
| 2026-05-07 04:38 | 40.57877 | -73.61590 | 2516 ft | 174 kts | 297° |
| 2026-05-07 04:38 | 40.58482 | -73.62929 | 2285 ft | 166 kts | 298° |
| 2026-05-07 04:38 | 40.59069 | -73.64215 | 2139 ft | 166 kts | 298° |
| 2026-05-07 04:38 | 40.59664 | -73.65532 | 1905 ft | 164 kts | 300° |
| 2026-05-07 04:39 | 40.60229 | -73.66777 | 1673 ft | 154 kts | 300° |
| 2026-05-07 04:39 | 40.60771 | -73.67974 | 1458 ft | 152 kts | 300° |
| 2026-05-07 04:39 | 40.61313 | -73.69169 | 1275 ft | 155 kts | 301° |
| 2026-05-07 04:39 | 40.61868 | -73.70400 | 1042 ft | 159 kts | 302° |
| 2026-05-07 04:40 | 40.62430 | -73.71633 | 832 ft | 156 kts | 302° |
| 2026-05-07 04:40 | 40.62992 | -73.72854 | 616 ft | 155 kts | 301° |
| 2026-05-07 04:40 | 40.63526 | -73.74087 | 365 ft | 156 kts | 302° |
| 2026-05-07 04:40 | 40.64076 | -73.75297 | 159 ft | 149 kts | 303° |
| 2026-05-07 04:41 | 40.64579 | -73.76399 | 26 ft | 131 kts | 304° |
| 2026-05-07 04:41 | 40.64820 | -73.76915 | 22 ft | 33 kts | 301° |
| 2026-05-07 04:41 | 40.64835 | -73.77048 | 20 ft | 11 kts | 244° |
| 2026-05-07 04:41 | 40.64827 | -73.77067 | 22 ft | 0 kts | 239° |
| 2026-05-07 04:42 | 40.64826 | -73.77068 | 22 ft | 0 kts | 239° |
| 2026-05-07 04:42 | 40.64819 | -73.77081 | 20 ft | 4 kts | 233° |
| 2026-05-07 04:42 | 40.64792 | -73.77130 | 20 ft | 10 kts | 237° |
| 2026-05-07 04:42 | 40.64736 | -73.77176 | 19 ft | 12 kts | 152° |
| 2026-05-07 04:43 | 40.64654 | -73.77099 | 19 ft | 17 kts | 157° |
| 2026-05-07 04:43 | 40.64548 | -73.77089 | 19 ft | 10 kts | 184° |
| 2026-05-07 04:43 | 40.64530 | -73.77091 | 22 ft | 3 kts | 184° |
| 2026-05-07 04:43 | 40.64486 | -73.77090 | 19 ft | 9 kts | 178° |
| 2026-05-07 04:44 | 40.64435 | -73.77149 | 19 ft | 10 kts | 278° |
| 2026-05-07 04:44 | 40.64469 | -73.77238 | 19 ft | 7 kts | 283° |
| 2026-05-07 04:44 | 40.64476 | -73.77307 | 21 ft | 8 kts | 289° |
| 2026-05-07 04:44 | 40.64520 | -73.77336 | 21 ft | 2 kts | 349° |
| 2026-05-07 04:45 | 40.64533 | -73.77337 | 19 ft | 0 kts | 358° |